West Granby, Connecticut
Current Conditions -  °F | °C
As of 7:51 PM on Saturday 25 Oct 2014 (Local Time) from KBDL Reporting Station
Overcast Overcast  
Wind Chill: 60°   Ceiling: 10000
Heat Index: 60°   Visibility: 10mi
Dew Point: 42°   Wind: 7mph
Humidity: 51%   Direction: 180°S
Pressure: 29.58"   Gusts: NA
Location:  41.96°N, 72.84°W
Report Text: KBDL 252351Z 18006KT 10SM SCT070 OVC100 16/06 A2958 RMK AO2 SLP016 T01560056 10200 20156 58010
Loading
Personal Weather Stations






























Interactive Weather Map
Tropical Storm Tracking
New forecast layout! Learn more

10-Day Weather Forecast

Advertisements
Track Severe Weather on mobile